sensor_id;sensor_type;location;lat;lon;timestamp;P1;durP1;ratioP1;P2;durP2;ratioP2
7110;SDS011;3597;42.650;23.386;2022-11-15T00:01:36;4.33;;;4.13;;
7110;SDS011;3597;42.650;23.386;2022-11-15T00:04:04;3.33;;;3.23;;
7110;SDS011;3597;42.650;23.386;2022-11-15T00:06:30;3.67;;;3.57;;
7110;SDS011;3597;42.650;23.386;2022-11-15T00:08:57;3.90;;;3.70;;
7110;SDS011;3597;42.650;23.386;2022-11-15T00:11:23;3.90;;;3.70;;
7110;SDS011;3597;42.650;23.386;2022-11-15T00:13:48;3.20;;;3.10;;
7110;SDS011;3597;42.650;23.386;2022-11-15T00:16:14;6.20;;;3.43;;
7110;SDS011;3597;42.650;23.386;2022-11-15T00:18:39;4.40;;;4.20;;
7110;SDS011;3597;42.650;23.386;2022-11-15T00:21:06;3.53;;;3.43;;
7110;SDS011;3597;42.650;23.386;2022-11-15T00:23:33;4.10;;;4.00;;
7110;SDS011;3597;42.650;23.386;2022-11-15T00:25:59;2.83;;;2.73;;
7110;SDS011;3597;42.650;23.386;2022-11-15T00:28:25;3.70;;;3.50;;
7110;SDS011;3597;42.650;23.386;2022-11-15T00:30:50;3.93;;;3.83;;
7110;SDS011;3597;42.650;23.386;2022-11-15T00:33:16;4.43;;;4.23;;
7110;SDS011;3597;42.650;23.386;2022-11-15T00:35:41;3.10;;;3.00;;
7110;SDS011;3597;42.650;23.386;2022-11-15T00:38:07;3.73;;;3.63;;
7110;SDS011;3597;42.650;23.386;2022-11-15T00:40:32;5.00;;;4.80;;
7110;SDS011;3597;42.650;23.386;2022-11-15T00:42:57;4.27;;;4.17;;
7110;SDS011;3597;42.650;23.386;2022-11-15T00:45:23;5.60;;;5.30;;
7110;SDS011;3597;42.650;23.386;2022-11-15T00:47:49;5.40;;;5.17;;
7110;SDS011;3597;42.650;23.386;2022-11-15T00:50:15;7.07;;;6.33;;
7110;SDS011;3597;42.650;23.386;2022-11-15T00:52:40;5.97;;;5.53;;
7110;SDS011;3597;42.650;23.386;2022-11-15T00:55:05;7.77;;;7.20;;
7110;SDS011;3597;42.650;23.386;2022-11-15T00:57:31;7.17;;;6.53;;
7110;SDS011;3597;42.650;23.386;2022-11-15T00:59:56;5.60;;;5.30;;
7110;SDS011;3597;42.650;23.386;2022-11-15T01:02:22;5.03;;;4.83;;
7110;SDS011;3597;42.650;23.386;2022-11-15T01:04:47;5.47;;;5.17;;
7110;SDS011;3597;42.650;23.386;2022-11-15T01:07:13;4.83;;;4.63;;
7110;SDS011;3597;42.650;23.386;2022-11-15T01:09:38;4.70;;;4.50;;
7110;SDS011;3597;42.650;23.386;2022-11-15T01:12:03;4.10;;;3.93;;
7110;SDS011;3597;42.650;23.386;2022-11-15T01:14:29;4.03;;;3.67;;
7110;SDS011;3597;42.650;23.386;2022-11-15T01:16:55;4.97;;;4.73;;
7110;SDS011;3597;42.650;23.386;2022-11-15T01:19:20;5.57;;;5.27;;
7110;SDS011;3597;42.650;23.386;2022-11-15T01:21:48;6.87;;;6.23;;
7110;SDS011;3597;42.650;23.386;2022-11-15T01:24:14;6.77;;;6.37;;
7110;SDS011;3597;42.650;23.386;2022-11-15T01:26:39;8.53;;;7.83;;
7110;SDS011;3597;42.650;23.386;2022-11-15T01:29:04;5.23;;;4.93;;
7110;SDS011;3597;42.650;23.386;2022-11-15T01:31:30;6.73;;;6.20;;
7110;SDS011;3597;42.650;23.386;2022-11-15T01:33:55;8.10;;;7.47;;
7110;SDS011;3597;42.650;23.386;2022-11-15T01:36:21;8.83;;;8.07;;
7110;SDS011;3597;42.650;23.386;2022-11-15T01:38:47;7.47;;;6.87;;
7110;SDS011;3597;42.650;23.386;2022-11-15T01:41:22;9.10;;;8.43;;
7110;SDS011;3597;42.650;23.386;2022-11-15T01:43:52;9.63;;;8.97;;
7110;SDS011;3597;42.650;23.386;2022-11-15T01:48:46;7.53;;;6.93;;
7110;SDS011;3597;42.650;23.386;2022-11-15T01:51:13;8.53;;;8.03;;
7110;SDS011;3597;42.650;23.386;2022-11-15T01:53:41;7.73;;;7.23;;
7110;SDS011;3597;42.650;23.386;2022-11-15T01:56:09;9.17;;;8.57;;
7110;SDS011;3597;42.650;23.386;2022-11-15T01:58:37;5.40;;;5.17;;
7110;SDS011;3597;42.650;23.386;2022-11-15T02:01:03;4.00;;;3.80;;
7110;SDS011;3597;42.650;23.386;2022-11-15T02:03:39;6.13;;;5.93;;
7110;SDS011;3597;42.650;23.386;2022-11-15T02:06:07;8.00;;;7.50;;
7110;SDS011;3597;42.650;23.386;2022-11-15T02:08:33;7.23;;;6.80;;
7110;SDS011;3597;42.650;23.386;2022-11-15T02:10:58;4.87;;;4.57;;
7110;SDS011;3597;42.650;23.386;2022-11-15T02:13:24;7.20;;;6.63;;
7110;SDS011;3597;42.650;23.386;2022-11-15T02:15:52;6.37;;;5.97;;
7110;SDS011;3597;42.650;23.386;2022-11-15T02:18:32;8.00;;;7.43;;
7110;SDS011;3597;42.650;23.386;2022-11-15T02:35:44;3.53;;;3.43;;
7110;SDS011;3597;42.650;23.386;2022-11-15T02:41:09;3.07;;;2.97;;
7110;SDS011;3597;42.650;23.386;2022-11-15T02:44:20;3.27;;;3.17;;
7110;SDS011;3597;42.650;23.386;2022-11-15T02:46:42;3.50;;;3.30;;
7110;SDS011;3597;42.650;23.386;2022-11-15T02:49:38;3.33;;;3.30;;
7110;SDS011;3597;42.650;23.386;2022-11-15T02:52:05;2.83;;;2.73;;
7110;SDS011;3597;42.650;23.386;2022-11-15T02:54:32;3.23;;;3.13;;
7110;SDS011;3597;42.650;23.386;2022-11-15T02:57:00;3.50;;;3.40;;
7110;SDS011;3597;42.650;23.386;2022-11-15T03:07:26;3.00;;;2.90;;
7110;SDS011;3597;42.650;23.386;2022-11-15T03:15:18;3.03;;;2.93;;
7110;SDS011;3597;42.650;23.386;2022-11-15T03:17:55;3.20;;;3.10;;
7110;SDS011;3597;42.650;23.386;2022-11-15T03:20:25;3.90;;;3.60;;
7110;SDS011;3597;42.650;23.386;2022-11-15T03:22:52;3.80;;;3.70;;
7110;SDS011;3597;42.650;23.386;2022-11-15T03:25:22;4.23;;;3.97;;
7110;SDS011;3597;42.650;23.386;2022-11-15T03:27:50;4.07;;;3.97;;
7110;SDS011;3597;42.650;23.386;2022-11-15T03:30:17;3.90;;;3.80;;
7110;SDS011;3597;42.650;23.386;2022-11-15T03:32:47;4.50;;;4.30;;
7110;SDS011;3597;42.650;23.386;2022-11-15T03:35:19;3.97;;;3.77;;
7110;SDS011;3597;42.650;23.386;2022-11-15T03:41:00;3.43;;;3.33;;
7110;SDS011;3597;42.650;23.386;2022-11-15T03:46:06;4.27;;;4.03;;
7110;SDS011;3597;42.650;23.386;2022-11-15T03:48:46;3.40;;;3.20;;
7110;SDS011;3597;42.650;23.386;2022-11-15T03:51:16;3.60;;;3.33;;
7110;SDS011;3597;42.650;23.386;2022-11-15T03:53:42;5.07;;;4.67;;
7110;SDS011;3597;42.650;23.386;2022-11-15T03:56:07;4.20;;;4.00;;
7110;SDS011;3597;42.650;23.386;2022-11-15T03:58:33;4.10;;;3.80;;
7110;SDS011;3597;42.650;23.386;2022-11-15T04:00:58;5.00;;;4.70;;
7110;SDS011;3597;42.650;23.386;2022-11-15T04:03:24;6.47;;;6.10;;
7110;SDS011;3597;42.650;23.386;2022-11-15T04:05:50;6.60;;;4.93;;
7110;SDS011;3597;42.650;23.386;2022-11-15T04:08:15;5.70;;;5.40;;
7110;SDS011;3597;42.650;23.386;2022-11-15T04:10:40;3.63;;;3.43;;
7110;SDS011;3597;42.650;23.386;2022-11-15T04:13:06;3.63;;;3.50;;
7110;SDS011;3597;42.650;23.386;2022-11-15T04:15:31;5.00;;;4.70;;
7110;SDS011;3597;42.650;23.386;2022-11-15T04:17:57;3.67;;;3.47;;
7110;SDS011;3597;42.650;23.386;2022-11-15T04:20:23;4.80;;;4.40;;
7110;SDS011;3597;42.650;23.386;2022-11-15T04:23:16;3.20;;;3.10;;
7110;SDS011;3597;42.650;23.386;2022-11-15T04:26:03;3.60;;;3.40;;
7110;SDS011;3597;42.650;23.386;2022-11-15T04:28:30;3.90;;;3.70;;
7110;SDS011;3597;42.650;23.386;2022-11-15T04:30:55;4.23;;;3.93;;
7110;SDS011;3597;42.650;23.386;2022-11-15T04:33:21;3.57;;;3.47;;
7110;SDS011;3597;42.650;23.386;2022-11-15T04:35:47;3.43;;;3.27;;
7110;SDS011;3597;42.650;23.386;2022-11-15T04:38:32;3.80;;;3.60;;
7110;SDS011;3597;42.650;23.386;2022-11-15T04:40:57;8.33;;;4.43;;
7110;SDS011;3597;42.650;23.386;2022-11-15T04:43:23;4.67;;;4.37;;
7110;SDS011;3597;42.650;23.386;2022-11-15T04:45:48;4.13;;;3.83;;
7110;SDS011;3597;42.650;23.386;2022-11-15T04:48:13;4.67;;;4.27;;
7110;SDS011;3597;42.650;23.386;2022-11-15T04:50:39;4.20;;;3.87;;
7110;SDS011;3597;42.650;23.386;2022-11-15T04:53:04;3.77;;;3.67;;
7110;SDS011;3597;42.650;23.386;2022-11-15T04:55:30;4.77;;;4.47;;
7110;SDS011;3597;42.650;23.386;2022-11-15T04:58:02;4.33;;;4.17;;
7110;SDS011;3597;42.650;23.386;2022-11-15T05:00:28;12.50;;;11.35;;
7110;SDS011;3597;42.650;23.386;2022-11-15T05:02:54;6.50;;;6.00;;
7110;SDS011;3597;42.650;23.386;2022-11-15T05:05:39;5.27;;;4.77;;
7110;SDS011;3597;42.650;23.386;2022-11-15T05:08:05;4.57;;;4.37;;
7110;SDS011;3597;42.650;23.386;2022-11-15T05:10:30;6.03;;;5.50;;
7110;SDS011;3597;42.650;23.386;2022-11-15T05:12:55;6.33;;;5.90;;
7110;SDS011;3597;42.650;23.386;2022-11-15T05:15:21;6.33;;;6.03;;
7110;SDS011;3597;42.650;23.386;2022-11-15T05:17:46;5.53;;;5.13;;
7110;SDS011;3597;42.650;23.386;2022-11-15T05:20:12;5.40;;;4.90;;
7110;SDS011;3597;42.650;23.386;2022-11-15T05:22:38;18.63;;;6.37;;
7110;SDS011;3597;42.650;23.386;2022-11-15T05:25:04;7.73;;;7.33;;
7110;SDS011;3597;42.650;23.386;2022-11-15T05:27:30;5.00;;;4.63;;
7110;SDS011;3597;42.650;23.386;2022-11-15T05:29:55;5.20;;;4.90;;
7110;SDS011;3597;42.650;23.386;2022-11-15T05:32:20;4.87;;;4.67;;
7110;SDS011;3597;42.650;23.386;2022-11-15T05:34:46;4.30;;;4.00;;
7110;SDS011;3597;42.650;23.386;2022-11-15T05:37:11;3.37;;;3.20;;
7110;SDS011;3597;42.650;23.386;2022-11-15T05:39:37;3.73;;;3.53;;
7110;SDS011;3597;42.650;23.386;2022-11-15T05:42:07;2.50;;;2.50;;
7110;SDS011;3597;42.650;23.386;2022-11-15T05:44:45;3.50;;;3.20;;
7110;SDS011;3597;42.650;23.386;2022-11-15T05:47:14;3.87;;;3.33;;
7110;SDS011;3597;42.650;23.386;2022-11-15T05:49:42;4.67;;;3.63;;
7110;SDS011;3597;42.650;23.386;2022-11-15T05:52:08;2.70;;;2.60;;
7110;SDS011;3597;42.650;23.386;2022-11-15T05:54:35;3.53;;;3.33;;
7110;SDS011;3597;42.650;23.386;2022-11-15T05:57:03;3.10;;;3.00;;
7110;SDS011;3597;42.650;23.386;2022-11-15T05:59:29;2.23;;;2.13;;
7110;SDS011;3597;42.650;23.386;2022-11-15T06:01:55;3.37;;;3.17;;
7110;SDS011;3597;42.650;23.386;2022-11-15T06:04:21;3.87;;;3.57;;
7110;SDS011;3597;42.650;23.386;2022-11-15T06:06:46;3.40;;;3.20;;
7110;SDS011;3597;42.650;23.386;2022-11-15T06:09:12;3.30;;;3.20;;
7110;SDS011;3597;42.650;23.386;2022-11-15T06:11:37;3.30;;;3.20;;
7110;SDS011;3597;42.650;23.386;2022-11-15T06:14:02;7.60;;;7.30;;
7110;SDS011;3597;42.650;23.386;2022-11-15T06:16:28;2.90;;;2.70;;
7110;SDS011;3597;42.650;23.386;2022-11-15T06:18:53;3.73;;;3.57;;
7110;SDS011;3597;42.650;23.386;2022-11-15T06:21:18;2.87;;;2.77;;
7110;SDS011;3597;42.650;23.386;2022-11-15T06:23:44;3.67;;;3.47;;
7110;SDS011;3597;42.650;23.386;2022-11-15T06:26:09;3.03;;;2.93;;
7110;SDS011;3597;42.650;23.386;2022-11-15T06:28:35;2.70;;;2.70;;
7110;SDS011;3597;42.650;23.386;2022-11-15T06:31:03;5.37;;;3.63;;
7110;SDS011;3597;42.650;23.386;2022-11-15T06:33:33;3.50;;;3.40;;
7110;SDS011;3597;42.650;23.386;2022-11-15T06:36:05;4.40;;;4.20;;
7110;SDS011;3597;42.650;23.386;2022-11-15T06:38:32;4.93;;;4.63;;
7110;SDS011;3597;42.650;23.386;2022-11-15T06:41:04;4.60;;;4.30;;
7110;SDS011;3597;42.650;23.386;2022-11-15T06:43:31;4.47;;;4.13;;
7110;SDS011;3597;42.650;23.386;2022-11-15T06:45:57;5.13;;;4.00;;
7110;SDS011;3597;42.650;23.386;2022-11-15T06:48:24;5.00;;;4.60;;
7110;SDS011;3597;42.650;23.386;2022-11-15T06:50:50;6.97;;;6.27;;
7110;SDS011;3597;42.650;23.386;2022-11-15T06:53:22;5.20;;;4.70;;
7110;SDS011;3597;42.650;23.386;2022-11-15T06:55:48;5.87;;;5.37;;
7110;SDS011;3597;42.650;23.386;2022-11-15T06:58:13;6.60;;;5.73;;
7110;SDS011;3597;42.650;23.386;2022-11-15T07:00:39;6.17;;;5.67;;
7110;SDS011;3597;42.650;23.386;2022-11-15T07:03:05;6.33;;;5.73;;
7110;SDS011;3597;42.650;23.386;2022-11-15T07:05:30;3.40;;;3.30;;
7110;SDS011;3597;42.650;23.386;2022-11-15T07:07:56;4.13;;;3.93;;
7110;SDS011;3597;42.650;23.386;2022-11-15T07:10:22;7.07;;;5.70;;
7110;SDS011;3597;42.650;23.386;2022-11-15T07:12:50;6.13;;;5.60;;
7110;SDS011;3597;42.650;23.386;2022-11-15T07:15:16;3.97;;;3.67;;
7110;SDS011;3597;42.650;23.386;2022-11-15T07:17:42;3.80;;;3.50;;
7110;SDS011;3597;42.650;23.386;2022-11-15T07:20:07;2.60;;;2.50;;
7110;SDS011;3597;42.650;23.386;2022-11-15T07:22:33;2.83;;;2.63;;
7110;SDS011;3597;42.650;23.386;2022-11-15T07:24:59;3.10;;;3.00;;
7110;SDS011;3597;42.650;23.386;2022-11-15T07:27:24;3.57;;;3.27;;
7110;SDS011;3597;42.650;23.386;2022-11-15T07:29:49;3.03;;;2.83;;
7110;SDS011;3597;42.650;23.386;2022-11-15T07:32:15;2.50;;;2.40;;
7110;SDS011;3597;42.650;23.386;2022-11-15T07:34:40;3.20;;;3.03;;
7110;SDS011;3597;42.650;23.386;2022-11-15T07:37:06;5.03;;;3.67;;
7110;SDS011;3597;42.650;23.386;2022-11-15T07:39:31;4.03;;;3.67;;
7110;SDS011;3597;42.650;23.386;2022-11-15T07:41:57;3.60;;;3.40;;
7110;SDS011;3597;42.650;23.386;2022-11-15T07:44:41;4.63;;;4.10;;
7110;SDS011;3597;42.650;23.386;2022-11-15T07:47:06;5.07;;;4.73;;
7110;SDS011;3597;42.650;23.386;2022-11-15T07:49:31;4.63;;;4.37;;
7110;SDS011;3597;42.650;23.386;2022-11-15T07:51:57;4.10;;;3.80;;
7110;SDS011;3597;42.650;23.386;2022-11-15T07:54:22;4.60;;;4.30;;
7110;SDS011;3597;42.650;23.386;2022-11-15T07:56:48;4.73;;;3.67;;
7110;SDS011;3597;42.650;23.386;2022-11-15T07:59:13;3.90;;;3.63;;
7110;SDS011;3597;42.650;23.386;2022-11-15T08:01:38;4.00;;;3.83;;
7110;SDS011;3597;42.650;23.386;2022-11-15T08:04:04;4.77;;;4.43;;
7110;SDS011;3597;42.650;23.386;2022-11-15T08:06:29;8.03;;;5.30;;
7110;SDS011;3597;42.650;23.386;2022-11-15T08:08:55;7.90;;;6.30;;
7110;SDS011;3597;42.650;23.386;2022-11-15T08:11:20;6.80;;;6.20;;
7110;SDS011;3597;42.650;23.386;2022-11-15T08:13:45;7.03;;;6.43;;
7110;SDS011;3597;42.650;23.386;2022-11-15T08:16:11;7.10;;;6.60;;
7110;SDS011;3597;42.650;23.386;2022-11-15T08:18:37;7.87;;;7.17;;
7110;SDS011;3597;42.650;23.386;2022-11-15T08:21:03;7.23;;;6.53;;
7110;SDS011;3597;42.650;23.386;2022-11-15T08:23:28;9.53;;;7.93;;
7110;SDS011;3597;42.650;23.386;2022-11-15T08:26:01;9.83;;;7.80;;
7110;SDS011;3597;42.650;23.386;2022-11-15T08:28:27;7.63;;;7.07;;
7110;SDS011;3597;42.650;23.386;2022-11-15T08:30:53;8.80;;;7.43;;
7110;SDS011;3597;42.650;23.386;2022-11-15T08:33:18;7.33;;;6.80;;
7110;SDS011;3597;42.650;23.386;2022-11-15T08:35:44;7.93;;;7.13;;
7110;SDS011;3597;42.650;23.386;2022-11-15T08:38:09;9.27;;;8.47;;
7110;SDS011;3597;42.650;23.386;2022-11-15T08:40:35;8.27;;;7.33;;
7110;SDS011;3597;42.650;23.386;2022-11-15T08:43:00;7.33;;;6.83;;
7110;SDS011;3597;42.650;23.386;2022-11-15T08:45:27;8.00;;;7.33;;
7110;SDS011;3597;42.650;23.386;2022-11-15T08:47:54;8.03;;;7.33;;
7110;SDS011;3597;42.650;23.386;2022-11-15T08:50:19;8.57;;;6.90;;
7110;SDS011;3597;42.650;23.386;2022-11-15T08:52:45;6.73;;;6.23;;
7110;SDS011;3597;42.650;23.386;2022-11-15T08:55:10;7.53;;;6.80;;
7110;SDS011;3597;42.650;23.386;2022-11-15T08:57:36;9.07;;;7.93;;
7110;SDS011;3597;42.650;23.386;2022-11-15T09:00:01;7.77;;;6.57;;
7110;SDS011;3597;42.650;23.386;2022-11-15T09:02:27;7.87;;;7.10;;
7110;SDS011;3597;42.650;23.386;2022-11-15T09:04:53;8.10;;;7.23;;
7110;SDS011;3597;42.650;23.386;2022-11-15T09:07:18;8.57;;;7.87;;
7110;SDS011;3597;42.650;23.386;2022-11-15T09:09:43;9.03;;;7.60;;
7110;SDS011;3597;42.650;23.386;2022-11-15T09:12:09;9.53;;;8.77;;
7110;SDS011;3597;42.650;23.386;2022-11-15T09:14:34;7.90;;;7.20;;
7110;SDS011;3597;42.650;23.386;2022-11-15T09:17:00;7.30;;;6.80;;
7110;SDS011;3597;42.650;23.386;2022-11-15T09:19:26;9.97;;;9.13;;
7110;SDS011;3597;42.650;23.386;2022-11-15T09:21:52;11.37;;;10.27;;
7110;SDS011;3597;42.650;23.386;2022-11-15T09:24:17;8.73;;;8.03;;
7110;SDS011;3597;42.650;23.386;2022-11-15T09:26:43;8.67;;;7.50;;
7110;SDS011;3597;42.650;23.386;2022-11-15T09:29:08;9.83;;;8.80;;
7110;SDS011;3597;42.650;23.386;2022-11-15T09:31:34;8.17;;;7.50;;
7110;SDS011;3597;42.650;23.386;2022-11-15T09:33:59;10.47;;;9.67;;
7110;SDS011;3597;42.650;23.386;2022-11-15T09:36:25;8.40;;;7.70;;
7110;SDS011;3597;42.650;23.386;2022-11-15T09:38:50;7.20;;;6.63;;
7110;SDS011;3597;42.650;23.386;2022-11-15T09:44:14;8.43;;;7.83;;
7110;SDS011;3597;42.650;23.386;2022-11-15T09:49:37;9.90;;;9.00;;
7110;SDS011;3597;42.650;23.386;2022-11-15T09:52:02;9.00;;;8.40;;
7110;SDS011;3597;42.650;23.386;2022-11-15T09:54:32;8.60;;;7.77;;
7110;SDS011;3597;42.650;23.386;2022-11-15T09:57:19;9.53;;;8.73;;
7110;SDS011;3597;42.650;23.386;2022-11-15T10:05:18;8.60;;;7.90;;
7110;SDS011;3597;42.650;23.386;2022-11-15T10:07:57;8.80;;;8.03;;
7110;SDS011;3597;42.650;23.386;2022-11-15T10:13:16;8.23;;;7.43;;
7110;SDS011;3597;42.650;23.386;2022-11-15T10:15:48;7.97;;;7.17;;
7110;SDS011;3597;42.650;23.386;2022-11-15T10:18:15;8.60;;;7.90;;
7110;SDS011;3597;42.650;23.386;2022-11-15T10:23:12;7.43;;;6.83;;
7110;SDS011;3597;42.650;23.386;2022-11-15T10:25:39;8.00;;;7.20;;
7110;SDS011;3597;42.650;23.386;2022-11-15T10:30:48;7.40;;;6.80;;
7110;SDS011;3597;42.650;23.386;2022-11-15T10:33:34;10.47;;;8.73;;
7110;SDS011;3597;42.650;23.386;2022-11-15T10:49:24;8.97;;;7.73;;
7110;SDS011;3597;42.650;23.386;2022-11-15T10:51:57;13.67;;;12.77;;
7110;SDS011;3597;42.650;23.386;2022-11-15T10:54:37;7.20;;;6.57;;
7110;SDS011;3597;42.650;23.386;2022-11-15T10:57:25;8.03;;;7.33;;
7110;SDS011;3597;42.650;23.386;2022-11-15T10:59:56;7.90;;;7.20;;
7110;SDS011;3597;42.650;23.386;2022-11-15T11:04:57;8.60;;;7.80;;
7110;SDS011;3597;42.650;23.386;2022-11-15T11:07:25;9.13;;;7.93;;
7110;SDS011;3597;42.650;23.386;2022-11-15T11:12:43;8.53;;;7.67;;
7110;SDS011;3597;42.650;23.386;2022-11-15T11:15:10;12.27;;;9.27;;
7110;SDS011;3597;42.650;23.386;2022-11-15T11:20:33;12.40;;;8.37;;
7110;SDS011;3597;42.650;23.386;2022-11-15T11:43:19;8.33;;;7.63;;
7110;SDS011;3597;42.650;23.386;2022-11-15T11:48:48;7.40;;;6.83;;
7110;SDS011;3597;42.650;23.386;2022-11-15T11:53:58;8.30;;;7.60;;
7110;SDS011;3597;42.650;23.386;2022-11-15T11:56:31;10.20;;;8.53;;
7110;SDS011;3597;42.650;23.386;2022-11-15T11:59:05;10.87;;;8.37;;
7110;SDS011;3597;42.650;23.386;2022-11-15T12:01:40;8.67;;;7.93;;
7110;SDS011;3597;42.650;23.386;2022-11-15T12:06:50;8.93;;;7.77;;
7110;SDS011;3597;42.650;23.386;2022-11-15T12:14:45;8.33;;;7.63;;
7110;SDS011;3597;42.650;23.386;2022-11-15T12:17:21;8.63;;;7.67;;
7110;SDS011;3597;42.650;23.386;2022-11-15T12:19:49;9.70;;;8.73;;
7110;SDS011;3597;42.650;23.386;2022-11-15T12:22:26;8.53;;;7.83;;
7110;SDS011;3597;42.650;23.386;2022-11-15T12:25:04;9.67;;;8.80;;
7110;SDS011;3597;42.650;23.386;2022-11-15T12:27:39;9.30;;;8.33;;
7110;SDS011;3597;42.650;23.386;2022-11-15T12:30:14;11.77;;;10.67;;
7110;SDS011;3597;42.650;23.386;2022-11-15T12:32:49;10.57;;;8.70;;
7110;SDS011;3597;42.650;23.386;2022-11-15T12:35:27;9.03;;;8.13;;
7110;SDS011;3597;42.650;23.386;2022-11-15T12:37:55;9.50;;;8.77;;
7110;SDS011;3597;42.650;23.386;2022-11-15T12:40:22;9.10;;;8.30;;
7110;SDS011;3597;42.650;23.386;2022-11-15T12:45:41;10.67;;;9.57;;
7110;SDS011;3597;42.650;23.386;2022-11-15T13:07:00;10.57;;;8.73;;
7110;SDS011;3597;42.650;23.386;2022-11-15T13:11:53;9.27;;;8.53;;
7110;SDS011;3597;42.650;23.386;2022-11-15T13:17:22;8.53;;;7.77;;
7110;SDS011;3597;42.650;23.386;2022-11-15T13:20:33;9.50;;;8.60;;
7110;SDS011;3597;42.650;23.386;2022-11-15T13:22:42;11.63;;;8.97;;
7110;SDS011;3597;42.650;23.386;2022-11-15T13:25:18;8.70;;;8.00;;
7110;SDS011;3597;42.650;23.386;2022-11-15T13:28:09;9.87;;;8.97;;
7110;SDS011;3597;42.650;23.386;2022-11-15T13:30:48;9.17;;;8.23;;
7110;SDS011;3597;42.650;23.386;2022-11-15T13:33:25;9.80;;;8.90;;
7110;SDS011;3597;42.650;23.386;2022-11-15T13:35:56;8.73;;;8.00;;
7110;SDS011;3597;42.650;23.386;2022-11-15T13:40:52;10.30;;;9.30;;
7110;SDS011;3597;42.650;23.386;2022-11-15T13:43:34;11.33;;;10.20;;
7110;SDS011;3597;42.650;23.386;2022-11-15T13:48:32;9.57;;;8.80;;
7110;SDS011;3597;42.650;23.386;2022-11-15T13:51:06;9.57;;;8.77;;
7110;SDS011;3597;42.650;23.386;2022-11-15T13:53:36;9.97;;;9.00;;
7110;SDS011;3597;42.650;23.386;2022-11-15T13:56:02;10.63;;;9.47;;
7110;SDS011;3597;42.650;23.386;2022-11-15T13:58:28;14.90;;;13.70;;
7110;SDS011;3597;42.650;23.386;2022-11-15T14:01:01;9.50;;;8.60;;
7110;SDS011;3597;42.650;23.386;2022-11-15T14:03:29;10.97;;;9.53;;
7110;SDS011;3597;42.650;23.386;2022-11-15T14:08:28;9.87;;;8.70;;
7110;SDS011;3597;42.650;23.386;2022-11-15T14:13:33;7.60;;;7.00;;
7110;SDS011;3597;42.650;23.386;2022-11-15T14:16:12;9.23;;;8.33;;
7110;SDS011;3597;42.650;23.386;2022-11-15T14:18:40;8.57;;;7.87;;
7110;SDS011;3597;42.650;23.386;2022-11-15T14:21:16;12.63;;;9.27;;
7110;SDS011;3597;42.650;23.386;2022-11-15T14:23:43;10.50;;;9.50;;
7110;SDS011;3597;42.650;23.386;2022-11-15T14:26:25;10.13;;;8.93;;
7110;SDS011;3597;42.650;23.386;2022-11-15T14:29:43;9.23;;;6.10;;
7110;SDS011;3597;42.650;23.386;2022-11-15T14:31:50;7.63;;;6.97;;
7110;SDS011;3597;42.650;23.386;2022-11-15T14:34:16;6.20;;;5.70;;
7110;SDS011;3597;42.650;23.386;2022-11-15T14:36:41;6.87;;;6.37;;
7110;SDS011;3597;42.650;23.386;2022-11-15T14:39:07;6.63;;;6.13;;
7110;SDS011;3597;42.650;23.386;2022-11-15T14:41:36;6.93;;;6.33;;
7110;SDS011;3597;42.650;23.386;2022-11-15T14:44:03;7.07;;;6.13;;
7110;SDS011;3597;42.650;23.386;2022-11-15T14:46:29;6.80;;;6.27;;
7110;SDS011;3597;42.650;23.386;2022-11-15T14:48:54;8.03;;;6.57;;
7110;SDS011;3597;42.650;23.386;2022-11-15T14:51:20;8.13;;;7.43;;
7110;SDS011;3597;42.650;23.386;2022-11-15T14:53:45;8.20;;;7.30;;
7110;SDS011;3597;42.650;23.386;2022-11-15T14:56:12;6.27;;;5.77;;
7110;SDS011;3597;42.650;23.386;2022-11-15T14:58:37;8.27;;;6.73;;
7110;SDS011;3597;42.650;23.386;2022-11-15T15:01:09;8.73;;;7.80;;
7110;SDS011;3597;42.650;23.386;2022-11-15T15:03:37;8.00;;;7.30;;
7110;SDS011;3597;42.650;23.386;2022-11-15T15:06:03;9.30;;;8.37;;
7110;SDS011;3597;42.650;23.386;2022-11-15T15:08:28;8.17;;;7.47;;
7110;SDS011;3597;42.650;23.386;2022-11-15T15:10:53;13.40;;;8.57;;
7110;SDS011;3597;42.650;23.386;2022-11-15T15:13:23;9.87;;;8.90;;
7110;SDS011;3597;42.650;23.386;2022-11-15T15:15:49;11.60;;;10.27;;
7110;SDS011;3597;42.650;23.386;2022-11-15T15:18:16;10.67;;;9.67;;
7110;SDS011;3597;42.650;23.386;2022-11-15T15:20:42;10.53;;;8.80;;
7110;SDS011;3597;42.650;23.386;2022-11-15T15:23:15;10.37;;;9.30;;
7110;SDS011;3597;42.650;23.386;2022-11-15T15:25:44;9.20;;;8.27;;
7110;SDS011;3597;42.650;23.386;2022-11-15T15:28:10;8.93;;;8.20;;
7110;SDS011;3597;42.650;23.386;2022-11-15T15:30:36;9.03;;;8.33;;
7110;SDS011;3597;42.650;23.386;2022-11-15T15:33:01;11.00;;;9.90;;
7110;SDS011;3597;42.650;23.386;2022-11-15T15:35:30;10.73;;;9.83;;
7110;SDS011;3597;42.650;23.386;2022-11-15T15:37:57;12.10;;;9.33;;
7110;SDS011;3597;42.650;23.386;2022-11-15T15:40:24;10.53;;;9.63;;
7110;SDS011;3597;42.650;23.386;2022-11-15T15:42:50;11.90;;;10.37;;
7110;SDS011;3597;42.650;23.386;2022-11-15T15:45:16;11.00;;;9.90;;
7110;SDS011;3597;42.650;23.386;2022-11-15T15:47:42;12.27;;;11.27;;
7110;SDS011;3597;42.650;23.386;2022-11-15T15:50:31;11.40;;;10.53;;
7110;SDS011;3597;42.650;23.386;2022-11-15T15:52:56;13.90;;;12.17;;
7110;SDS011;3597;42.650;23.386;2022-11-15T15:55:23;9.97;;;9.17;;
7110;SDS011;3597;42.650;23.386;2022-11-15T15:57:49;15.23;;;11.07;;
7110;SDS011;3597;42.650;23.386;2022-11-15T16:00:15;13.37;;;10.57;;
7110;SDS011;3597;42.650;23.386;2022-11-15T16:02:41;16.33;;;10.43;;
7110;SDS011;3597;42.650;23.386;2022-11-15T16:05:07;13.10;;;9.10;;
7110;SDS011;3597;42.650;23.386;2022-11-15T16:07:33;10.20;;;9.20;;
7110;SDS011;3597;42.650;23.386;2022-11-15T16:09:58;10.70;;;9.60;;
7110;SDS011;3597;42.650;23.386;2022-11-15T16:14:53;10.70;;;9.70;;
7110;SDS011;3597;42.650;23.386;2022-11-15T16:17:20;9.93;;;8.73;;
7110;SDS011;3597;42.650;23.386;2022-11-15T16:19:47;11.60;;;9.20;;
7110;SDS011;3597;42.650;23.386;2022-11-15T16:22:12;10.77;;;9.80;;
7110;SDS011;3597;42.650;23.386;2022-11-15T16:24:37;16.70;;;9.93;;
7110;SDS011;3597;42.650;23.386;2022-11-15T16:27:03;10.43;;;9.37;;
7110;SDS011;3597;42.650;23.386;2022-11-15T16:29:28;9.20;;;8.30;;
7110;SDS011;3597;42.650;23.386;2022-11-15T16:31:54;11.80;;;9.60;;
7110;SDS011;3597;42.650;23.386;2022-11-15T16:34:20;10.90;;;9.50;;
7110;SDS011;3597;42.650;23.386;2022-11-15T16:36:46;14.93;;;10.47;;
7110;SDS011;3597;42.650;23.386;2022-11-15T16:39:11;11.13;;;9.30;;
7110;SDS011;3597;42.650;23.386;2022-11-15T16:41:43;9.77;;;8.87;;
7110;SDS011;3597;42.650;23.386;2022-11-15T16:44:11;12.20;;;9.33;;
7110;SDS011;3597;42.650;23.386;2022-11-15T16:46:37;8.17;;;7.47;;
7110;SDS011;3597;42.650;23.386;2022-11-15T16:49:07;10.97;;;8.83;;
7110;SDS011;3597;42.650;23.386;2022-11-15T16:51:37;8.27;;;7.50;;
7110;SDS011;3597;42.650;23.386;2022-11-15T16:54:05;9.40;;;8.50;;
7110;SDS011;3597;42.650;23.386;2022-11-15T16:56:30;8.37;;;7.77;;
7110;SDS011;3597;42.650;23.386;2022-11-15T16:58:56;11.50;;;9.17;;
7110;SDS011;3597;42.650;23.386;2022-11-15T17:01:23;9.13;;;8.13;;
7110;SDS011;3597;42.650;23.386;2022-11-15T17:03:53;9.93;;;8.97;;
7110;SDS011;3597;42.650;23.386;2022-11-15T17:06:19;10.33;;;9.27;;
7110;SDS011;3597;42.650;23.386;2022-11-15T17:08:45;10.00;;;9.10;;
7110;SDS011;3597;42.650;23.386;2022-11-15T17:11:15;9.17;;;8.37;;
7110;SDS011;3597;42.650;23.386;2022-11-15T17:13:41;8.97;;;8.20;;
7110;SDS011;3597;42.650;23.386;2022-11-15T17:16:08;9.20;;;8.13;;
7110;SDS011;3597;42.650;23.386;2022-11-15T17:18:35;8.80;;;7.73;;
7110;SDS011;3597;42.650;23.386;2022-11-15T17:21:04;8.07;;;7.30;;
7110;SDS011;3597;42.650;23.386;2022-11-15T17:23:30;7.87;;;7.17;;
7110;SDS011;3597;42.650;23.386;2022-11-15T17:26:00;6.73;;;6.33;;
7110;SDS011;3597;42.650;23.386;2022-11-15T17:28:28;7.97;;;7.23;;
7110;SDS011;3597;42.650;23.386;2022-11-15T17:30:54;7.23;;;6.63;;
7110;SDS011;3597;42.650;23.386;2022-11-15T17:33:19;8.57;;;7.80;;
7110;SDS011;3597;42.650;23.386;2022-11-15T17:35:44;10.73;;;9.77;;
7110;SDS011;3597;42.650;23.386;2022-11-15T17:38:10;7.77;;;7.17;;